Time;durP1;ratioP1;P1;durP2;ratioP2;P2;SDS_P1;SDS_P2;PMS_P1;PMS_P2;Temp;Humidity;BMP_temperature;BMP_pressure;BME280_temperature;BME280_humidity;BME280_pressure;Samples;Min_cycle;Max_cycle;Signal;HPM_P1;HPM_P2
2023/01/05 00:01:44;;;;;;;7.40;2.40;;;;;;;;;;5032406;28;21067;-69
2023/01/05 00:04:39;;;;;;;6.47;2.57;;;;;;;;;;5034668;28;20470;-69
2023/01/05 00:07:28;;;;;;;7.97;2.03;;;;;;;;;;5035882;28;21067;-69
2023/01/05 00:22:48;;;;;;;8.37;2.20;;;;;;;;;;5040825;28;20492;-70
2023/01/05 00:25:42;;;;;;;7.83;2.20;;;;;;;;;;5041640;28;20448;-70
2023/01/05 00:28:31;;;;;;;6.30;1.60;;;;;;;;;;5034650;28;20481;-69
2023/01/05 00:31:21;;;;;;;6.27;2.00;;;;;;;;;;5035429;28;20563;-70
2023/01/05 00:34:10;;;;;;;5.33;2.87;;;;;;;;;;5035510;28;20479;-70
2023/01/05 00:37:04;;;;;;;8.20;2.33;;;;;;;;;;5041023;28;20490;-70
2023/01/05 00:39:55;;;;;;;5.73;2.10;;;;;;;;;;5036344;28;20459;-70
2023/01/05 00:42:50;;;;;;;7.87;2.30;;;;;;;;;;5034250;28;20475;-70
2023/01/05 00:45:43;;;;;;;10.23;2.53;;;;;;;;;;5031587;28;20457;-70
2023/01/05 00:48:32;;;;;;;8.07;2.13;;;;;;;;;;5032857;28;20486;-70
2023/01/05 00:51:20;;;;;;;8.90;2.20;;;;;;;;;;5036297;28;20868;-70
2023/01/05 00:54:12;;;;;;;7.93;2.07;;;;;;;;;;5032943;28;20575;-70
2023/01/05 00:57:06;;;;;;;7.00;2.13;;;;;;;;;;5034806;28;20471;-70
2023/01/05 01:00:00;;;;;;;4.70;2.27;;;;;;;;;;5031299;28;20463;-70
2023/01/05 01:02:51;;;;;;;7.63;2.40;;;;;;;;;;5031219;28;20536;-70
2023/01/05 01:05:40;;;;;;;4.77;2.00;;;;;;;;;;5031319;28;20465;-70
2023/01/05 01:08:35;;;;;;;10.50;2.57;;;;;;;;;;5038794;28;20471;-70
2023/01/05 01:11:26;;;;;;;4.30;1.90;;;;;;;;;;5035792;28;21154;-70
2023/01/05 01:14:17;;;;;;;7.67;2.10;;;;;;;;;;5036063;28;20954;-70
2023/01/05 01:17:13;;;;;;;7.93;2.03;;;;;;;;;;5034887;28;20562;-70
2023/01/05 01:20:07;;;;;;;4.57;2.00;;;;;;;;;;5032739;28;20479;-70
2023/01/05 01:22:59;;;;;;;9.40;2.67;;;;;;;;;;5034177;28;20569;-70
2023/01/05 01:25:49;;;;;;;5.40;1.80;;;;;;;;;;5035930;28;20471;-70
2023/01/05 01:28:39;;;;;;;4.97;1.80;;;;;;;;;;5037658;28;20498;-70
2023/01/05 01:31:28;;;;;;;8.10;2.20;;;;;;;;;;5033458;28;20472;-70
2023/01/05 01:34:23;;;;;;;5.10;1.80;;;;;;;;;;5035686;28;20999;-69
2023/01/05 01:37:12;;;;;;;4.13;1.70;;;;;;;;;;5035714;28;20483;-70
2023/01/05 01:40:05;;;;;;;3.70;1.97;;;;;;;;;;5031244;28;20456;-70
2023/01/05 01:42:57;;;;;;;6.13;2.00;;;;;;;;;;5023866;28;20465;-69
2023/01/05 01:45:51;;;;;;;7.97;1.73;;;;;;;;;;5033053;28;21229;-69
2023/01/05 01:48:42;;;;;;;5.00;1.80;;;;;;;;;;5027953;28;20483;-69
2023/01/05 01:51:33;;;;;;;5.60;2.10;;;;;;;;;;5028893;28;20487;-70
2023/01/05 01:54:23;;;;;;;3.10;1.43;;;;;;;;;;5030965;28;20467;-70
2023/01/05 01:57:12;;;;;;;3.93;1.60;;;;;;;;;;5027960;28;20479;-70
2023/01/05 02:00:02;;;;;;;4.60;1.90;;;;;;;;;;5028247;28;20845;-70
2023/01/05 02:02:56;;;;;;;5.73;1.47;;;;;;;;;;5021620;28;20479;-69
2023/01/05 02:05:46;;;;;;;6.30;2.93;;;;;;;;;;5033956;28;20447;-70
2023/01/05 02:08:35;;;;;;;3.83;1.77;;;;;;;;;;5029095;28;20490;-70
2023/01/05 02:11:35;;;;;;;3.60;1.40;;;;;;;;;;5033528;28;20684;-69
2023/01/05 02:14:28;;;;;;;7.73;1.87;;;;;;;;;;5036348;28;20795;-69
2023/01/05 02:17:21;;;;;;;6.70;2.00;;;;;;;;;;5031258;28;20479;-70
2023/01/05 02:20:29;;;;;;;5.93;1.47;;;;;;;;;;5031372;28;20458;-70
2023/01/05 02:23:28;;;;;;;6.00;1.70;;;;;;;;;;5032207;28;20455;-69
2023/01/05 02:26:36;;;;;;;6.90;2.00;;;;;;;;;;5035289;28;20455;-70
2023/01/05 02:29:42;;;;;;;6.13;2.00;;;;;;;;;;5031422;28;21470;-70
2023/01/05 02:32:36;;;;;;;4.43;1.47;;;;;;;;;;5035429;28;21499;-70
2023/01/05 02:35:30;;;;;;;4.93;1.50;;;;;;;;;;5036933;28;20476;-70
2023/01/05 02:38:24;;;;;;;7.37;1.50;;;;;;;;;;5033286;28;20490;-70
2023/01/05 02:41:15;;;;;;;6.57;1.90;;;;;;;;;;5038391;28;20483;-70
2023/01/05 02:44:08;;;;;;;4.50;1.60;;;;;;;;;;5039360;28;20473;-70
2023/01/05 02:47:00;;;;;;;4.87;1.93;;;;;;;;;;5033445;28;20490;-70
2023/01/05 02:49:57;;;;;;;4.43;1.70;;;;;;;;;;5040931;28;20911;-71
2023/01/05 02:52:48;;;;;;;8.70;1.50;;;;;;;;;;5034955;28;20596;-70
2023/01/05 02:55:39;;;;;;;3.30;1.60;;;;;;;;;;5043623;28;20920;-70
2023/01/05 02:58:30;;;;;;;2.80;1.43;;;;;;;;;;5041741;28;20474;-70
2023/01/05 03:01:24;;;;;;;5.17;1.30;;;;;;;;;;5038220;28;20487;-69
2023/01/05 03:04:17;;;;;;;4.57;1.40;;;;;;;;;;5038796;28;20443;-70
2023/01/05 03:07:15;;;;;;;3.23;1.17;;;;;;;;;;5040800;28;20474;-71
2023/01/05 03:16:20;;;;;;;5.03;1.00;;;;;;;;;;5033935;28;21536;-70
2023/01/05 03:38:22;;;;;;;4.33;1.23;;;;;;;;;;5033345;28;20585;-70
2023/01/05 03:41:14;;;;;;;3.73;1.10;;;;;;;;;;5030905;28;21020;-70
2023/01/05 03:44:03;;;;;;;6.03;1.63;;;;;;;;;;5030823;28;20463;-70
2023/01/05 03:46:56;;;;;;;4.10;1.73;;;;;;;;;;5030579;28;20486;-70
2023/01/05 03:49:45;;;;;;;3.00;1.20;;;;;;;;;;5036676;28;20913;-70
2023/01/05 03:52:33;;;;;;;3.00;1.40;;;;;;;;;;5033143;28;20520;-70
2023/01/05 03:55:24;;;;;;;4.23;1.40;;;;;;;;;;5036757;28;21073;-70
2023/01/05 03:58:15;;;;;;;3.60;1.10;;;;;;;;;;5038562;28;20490;-69
2023/01/05 04:01:04;;;;;;;2.70;1.50;;;;;;;;;;5034631;28;20475;-70
2023/01/05 04:03:55;;;;;;;3.50;1.50;;;;;;;;;;5033711;28;20459;-70
2023/01/05 04:06:49;;;;;;;5.03;1.50;;;;;;;;;;5034016;28;20528;-70
2023/01/05 04:09:39;;;;;;;6.63;1.40;;;;;;;;;;5036598;28;20809;-70
2023/01/05 04:12:31;;;;;;;5.57;1.17;;;;;;;;;;5034774;28;21591;-71
2023/01/05 04:15:25;;;;;;;3.13;1.07;;;;;;;;;;5037679;28;21025;-73
2023/01/05 04:18:13;;;;;;;5.40;1.10;;;;;;;;;;5033327;28;20471;-70
2023/01/05 04:21:04;;;;;;;6.23;1.70;;;;;;;;;;5034964;28;20637;-70
2023/01/05 04:23:59;;;;;;;9.03;1.57;;;;;;;;;;5034185;28;20829;-70
2023/01/05 04:26:47;;;;;;;9.30;1.30;;;;;;;;;;5036592;28;20467;-70
2023/01/05 04:29:40;;;;;;;6.20;1.70;;;;;;;;;;5034534;28;20468;-70
2023/01/05 04:32:33;;;;;;;4.23;1.30;;;;;;;;;;5034796;28;20533;-69
2023/01/05 04:35:22;;;;;;;4.80;1.40;;;;;;;;;;5038543;28;20446;-70
2023/01/05 04:38:13;;;;;;;5.00;1.67;;;;;;;;;;5033229;28;20511;-70
2023/01/05 04:41:01;;;;;;;4.93;1.57;;;;;;;;;;5034042;28;20498;-69
2023/01/05 04:43:53;;;;;;;12.20;2.50;;;;;;;;;;5027936;28;20765;-69
2023/01/05 04:46:45;;;;;;;3.97;1.67;;;;;;;;;;5025769;28;20901;-70
2023/01/05 04:49:34;;;;;;;4.10;1.57;;;;;;;;;;5040451;28;20524;-69
2023/01/05 04:52:22;;;;;;;5.37;1.53;;;;;;;;;;5034772;28;20480;-71
2023/01/05 04:55:12;;;;;;;4.53;1.40;;;;;;;;;;5039351;28;20502;-70
2023/01/05 04:58:00;;;;;;;7.00;1.60;;;;;;;;;;5036479;28;20476;-70
2023/01/05 05:00:59;;;;;;;8.50;1.30;;;;;;;;;;5036204;28;20960;-69
2023/01/05 05:03:50;;;;;;;6.13;1.60;;;;;;;;;;5035089;28;20462;-70
2023/01/05 05:06:39;;;;;;;4.80;1.60;;;;;;;;;;5035966;28;20989;-70
2023/01/05 05:09:32;;;;;;;4.57;1.40;;;;;;;;;;5038644;28;20584;-70
2023/01/05 05:12:21;;;;;;;4.60;1.30;;;;;;;;;;5032387;28;20487;-70
2023/01/05 05:15:13;;;;;;;5.73;1.50;;;;;;;;;;5034316;28;20452;-70
2023/01/05 05:18:02;;;;;;;5.40;1.73;;;;;;;;;;5030905;28;20597;-70
2023/01/05 05:20:58;;;;;;;6.80;1.70;;;;;;;;;;5037997;28;20689;-70
2023/01/05 05:23:46;;;;;;;6.30;1.53;;;;;;;;;;5040187;28;20470;-70
2023/01/05 05:26:36;;;;;;;7.20;1.63;;;;;;;;;;5036177;28;20506;-70
2023/01/05 05:29:24;;;;;;;3.70;1.47;;;;;;;;;;5033412;28;20463;-69
2023/01/05 05:32:18;;;;;;;3.70;1.53;;;;;;;;;;5033107;28;20569;-70
2023/01/05 05:35:08;;;;;;;4.27;1.30;;;;;;;;;;5037111;28;20552;-70
2023/01/05 05:37:58;;;;;;;7.50;1.57;;;;;;;;;;5044167;28;20560;-70
2023/01/05 05:40:50;;;;;;;5.10;1.40;;;;;;;;;;5037462;28;20588;-70
2023/01/05 05:43:44;;;;;;;3.23;1.00;;;;;;;;;;5024752;28;21297;-70
2023/01/05 05:46:35;;;;;;;4.93;1.20;;;;;;;;;;5032244;28;20447;-70
2023/01/05 05:49:25;;;;;;;9.53;1.70;;;;;;;;;;5031270;28;20459;-69
2023/01/05 05:52:15;;;;;;;4.00;1.13;;;;;;;;;;5030773;28;20919;-70
2023/01/05 05:55:09;;;;;;;8.80;1.40;;;;;;;;;;5035867;28;20882;-69
2023/01/05 05:57:57;;;;;;;6.33;2.07;;;;;;;;;;5036916;28;20633;-70
2023/01/05 06:00:46;;;;;;;4.97;2.07;;;;;;;;;;5035873;28;20485;-69
2023/01/05 06:03:38;;;;;;;4.00;1.50;;;;;;;;;;5030766;28;20443;-70
2023/01/05 06:06:28;;;;;;;3.70;1.90;;;;;;;;;;5033033;28;20455;-70
2023/01/05 06:09:18;;;;;;;5.80;1.63;;;;;;;;;;5036995;28;20450;-69
2023/01/05 06:12:11;;;;;;;4.20;1.97;;;;;;;;;;5036020;28;20471;-70
2023/01/05 06:15:01;;;;;;;7.40;1.57;;;;;;;;;;5032461;28;21200;-70
2023/01/05 06:17:52;;;;;;;6.20;1.80;;;;;;;;;;5023564;28;20551;-70
2023/01/05 06:20:43;;;;;;;10.10;2.20;;;;;;;;;;5031928;28;20566;-69
2023/01/05 06:23:32;;;;;;;5.43;1.47;;;;;;;;;;5030639;28;21228;-70
2023/01/05 06:26:22;;;;;;;7.40;1.60;;;;;;;;;;5032139;28;21050;-70
2023/01/05 06:29:12;;;;;;;2.60;1.50;;;;;;;;;;5023925;28;20504;-70
2023/01/05 07:18:33;;;;;;;6.17;2.30;;;;;;;;;;5005781;28;20954;-71
2023/01/05 07:21:22;;;;;;;6.43;1.73;;;;;;;;;;5031246;28;21042;-69
2023/01/05 07:24:11;;;;;;;8.67;2.30;;;;;;;;;;5028296;28;20521;-69
2023/01/05 07:26:59;;;;;;;5.03;1.97;;;;;;;;;;5027964;28;20569;-70
2023/01/05 07:29:56;;;;;;;6.07;1.73;;;;;;;;;;5035360;28;20459;-69
2023/01/05 07:32:45;;;;;;;7.80;1.70;;;;;;;;;;5030935;28;20633;-70
2023/01/05 07:35:35;;;;;;;9.70;2.10;;;;;;;;;;5031149;28;20455;-70
2023/01/05 07:38:23;;;;;;;10.70;2.20;;;;;;;;;;5036849;28;20517;-70
2023/01/05 07:41:12;;;;;;;6.17;1.80;;;;;;;;;;5032938;28;20475;-69
2023/01/05 07:44:01;;;;;;;1.73;1.23;;;;;;;;;;5047830;28;21073;-69
2023/01/05 07:46:49;;;;;;;7.80;1.50;;;;;;;;;;5053352;28;20479;-71
2023/01/05 07:49:38;;;;;;;6.53;1.67;;;;;;;;;;5053462;28;20451;-69
2023/01/05 07:52:29;;;;;;;5.83;1.93;;;;;;;;;;5034118;28;20735;-69
2023/01/05 07:55:18;;;;;;;9.03;2.60;;;;;;;;;;5042341;28;21420;-69
2023/01/05 07:58:06;;;;;;;11.07;1.87;;;;;;;;;;5045388;28;20479;-69
2023/01/05 08:00:55;;;;;;;7.60;2.13;;;;;;;;;;5039416;28;20505;-69
2023/01/05 08:03:43;;;;;;;7.23;1.67;;;;;;;;;;5027559;28;20958;-72
2023/01/05 08:06:32;;;;;;;8.47;2.47;;;;;;;;;;5026262;28;20458;-69
2023/01/05 08:12:29;;;;;;;7.00;1.80;;;;;;;;;;5022925;28;20955;-71
2023/01/05 08:15:18;;;;;;;8.07;2.20;;;;;;;;;;5028906;28;20505;-72
2023/01/05 08:18:07;;;;;;;11.40;1.83;;;;;;;;;;5024459;28;20552;-70
2023/01/05 08:20:56;;;;;;;10.43;2.30;;;;;;;;;;5023332;28;20479;-70
2023/01/05 08:23:49;;;;;;;4.40;1.30;;;;;;;;;;5025133;28;20963;-71
2023/01/05 08:26:39;;;;;;;9.20;2.20;;;;;;;;;;5036172;28;20569;-70
2023/01/05 08:29:27;;;;;;;10.93;2.27;;;;;;;;;;5035116;28;20474;-70
2023/01/05 08:32:16;;;;;;;6.37;1.80;;;;;;;;;;5032538;28;21020;-71
2023/01/05 08:35:05;;;;;;;6.67;2.10;;;;;;;;;;5033622;28;20643;-71
2023/01/05 08:37:53;;;;;;;4.70;2.23;;;;;;;;;;5034752;28;20489;-71
2023/01/05 08:40:42;;;;;;;9.20;2.50;;;;;;;;;;5034218;28;20866;-70
2023/01/05 08:43:32;;;;;;;8.60;2.10;;;;;;;;;;5029411;28;20464;-71
2023/01/05 08:46:21;;;;;;;5.80;1.80;;;;;;;;;;5030454;28;20839;-71
2023/01/05 08:49:10;;;;;;;9.50;2.37;;;;;;;;;;5029827;28;22117;-71
2023/01/05 08:51:58;;;;;;;8.23;2.10;;;;;;;;;;5027670;28;21180;-71
2023/01/05 08:54:47;;;;;;;6.90;2.00;;;;;;;;;;5024459;28;20680;-70
2023/01/05 08:57:35;;;;;;;5.03;2.00;;;;;;;;;;5021847;28;20494;-70
2023/01/05 09:00:25;;;;;;;5.47;2.30;;;;;;;;;;5018588;28;20488;-70
2023/01/05 09:03:14;;;;;;;8.03;1.80;;;;;;;;;;5018661;28;20459;-71
2023/01/05 09:06:03;;;;;;;8.47;2.07;;;;;;;;;;5033814;28;20471;-71
2023/01/05 09:08:51;;;;;;;6.60;2.43;;;;;;;;;;5030421;28;21076;-71
2023/01/05 09:11:40;;;;;;;9.80;1.90;;;;;;;;;;5026991;28;20479;-71
2023/01/05 09:14:28;;;;;;;7.40;2.10;;;;;;;;;;5033175;28;20462;-71
2023/01/05 09:17:18;;;;;;;5.37;1.70;;;;;;;;;;5028645;28;20480;-71
2023/01/05 09:20:07;;;;;;;8.13;2.10;;;;;;;;;;5034129;28;20451;-71
2023/01/05 09:22:59;;;;;;;7.90;1.70;;;;;;;;;;5032460;28;20459;-71
2023/01/05 09:25:48;;;;;;;6.43;1.80;;;;;;;;;;5024544;28;20452;-70
2023/01/05 09:28:36;;;;;;;8.03;2.17;;;;;;;;;;5023397;28;20475;-71
2023/01/05 09:31:25;;;;;;;9.87;2.90;;;;;;;;;;5032608;28;20532;-71
2023/01/05 09:34:17;;;;;;;7.70;1.70;;;;;;;;;;5038900;28;20544;-73
2023/01/05 09:37:06;;;;;;;5.10;2.10;;;;;;;;;;5024293;28;20620;-72
2023/01/05 09:39:54;;;;;;;8.13;2.83;;;;;;;;;;5031328;28;20444;-71
2023/01/05 09:42:45;;;;;;;12.80;3.30;;;;;;;;;;5026832;28;21253;-71
2023/01/05 09:45:36;;;;;;;7.07;2.47;;;;;;;;;;5026045;28;20453;-71
2023/01/05 09:48:25;;;;;;;11.30;2.47;;;;;;;;;;5015032;28;20475;-71
2023/01/05 09:51:15;;;;;;;4.90;2.03;;;;;;;;;;5036818;28;21018;-71
2023/01/05 09:54:04;;;;;;;6.83;3.50;;;;;;;;;;5032511;28;20577;-71
2023/01/05 09:56:55;;;;;;;8.37;2.90;;;;;;;;;;5034896;28;20484;-71
2023/01/05 10:00:01;;;;;;;8.50;2.20;;;;;;;;;;5022044;28;21162;-71
2023/01/05 10:02:50;;;;;;;9.03;2.40;;;;;;;;;;5025873;28;20527;-71
2023/01/05 10:05:41;;;;;;;10.40;3.03;;;;;;;;;;5029173;28;20451;-71
2023/01/05 10:08:34;;;;;;;6.30;2.30;;;;;;;;;;5028891;28;20482;-72
2023/01/05 10:14:34;;;;;;;10.47;2.70;;;;;;;;;;5024531;28;20461;-71
2023/01/05 10:17:27;;;;;;;9.67;2.87;;;;;;;;;;5027907;28;20491;-71
2023/01/05 10:20:36;;;;;;;10.47;2.50;;;;;;;;;;5027949;28;20577;-71
2023/01/05 10:23:41;;;;;;;6.63;1.80;;;;;;;;;;5029191;28;20684;-71
2023/01/05 10:26:32;;;;;;;7.50;2.20;;;;;;;;;;5029202;28;20459;-72
2023/01/05 10:29:44;;;;;;;10.40;2.30;;;;;;;;;;5029870;28;20455;-70
2023/01/05 10:32:37;;;;;;;7.83;2.43;;;;;;;;;;5021208;28;20466;-70
2023/01/05 10:35:45;;;;;;;11.20;2.90;;;;;;;;;;5026557;28;21132;-71
2023/01/05 10:38:59;;;;;;;8.73;2.17;;;;;;;;;;5018203;28;20475;-70
2023/01/05 10:41:51;;;;;;;6.37;2.97;;;;;;;;;;5018395;28;20605;-70
2023/01/05 10:44:53;;;;;;;8.60;2.43;;;;;;;;;;5020879;28;20448;-70
2023/01/05 10:47:43;;;;;;;11.67;2.50;;;;;;;;;;5019254;28;20475;-71
2023/01/05 10:50:35;;;;;;;9.80;2.57;;;;;;;;;;5027455;28;21266;-71
2023/01/05 10:53:25;;;;;;;8.33;2.33;;;;;;;;;;5028104;28;20568;-70
2023/01/05 10:56:19;;;;;;;6.30;2.00;;;;;;;;;;5024327;28;20463;-71
2023/01/05 10:59:09;;;;;;;6.63;2.00;;;;;;;;;;5019000;28;20620;-71
2023/01/05 11:01:57;;;;;;;7.80;1.97;;;;;;;;;;5024091;28;20809;-72
2023/01/05 11:04:47;;;;;;;7.37;2.50;;;;;;;;;;5024670;28;20455;-72
2023/01/05 11:07:47;;;;;;;4.33;2.20;;;;;;;;;;5026990;28;21039;-71
2023/01/05 11:10:36;;;;;;;7.60;1.97;;;;;;;;;;5038515;28;20479;-71
2023/01/05 11:13:32;;;;;;;11.20;2.00;;;;;;;;;;5039894;28;20463;-71
2023/01/05 11:16:21;;;;;;;7.73;2.27;;;;;;;;;;5036625;28;20459;-70
2023/01/05 11:19:14;;;;;;;8.20;2.00;;;;;;;;;;5028013;28;20981;-71
2023/01/05 11:22:03;;;;;;;11.03;2.70;;;;;;;;;;5031870;28;20507;-71
2023/01/05 11:24:52;;;;;;;5.17;2.20;;;;;;;;;;5035257;28;20533;-71
2023/01/05 11:27:40;;;;;;;15.30;2.57;;;;;;;;;;5033947;28;20574;-71
2023/01/05 11:30:32;;;;;;;6.57;2.17;;;;;;;;;;5028668;28;20870;-71
2023/01/05 11:33:24;;;;;;;7.83;3.00;;;;;;;;;;5028282;28;23980;-71
2023/01/05 11:36:15;;;;;;;12.00;2.97;;;;;;;;;;5023878;28;20500;-71
2023/01/05 11:39:03;;;;;;;11.13;2.53;;;;;;;;;;5030229;28;20832;-71
2023/01/05 11:41:52;;;;;;;9.33;2.73;;;;;;;;;;5026711;28;20529;-71
2023/01/05 11:44:42;;;;;;;8.20;2.40;;;;;;;;;;5035054;28;20459;-72
2023/01/05 11:47:34;;;;;;;7.37;2.00;;;;;;;;;;5030762;28;20474;-71
2023/01/05 11:50:32;;;;;;;7.20;2.53;;;;;;;;;;5030357;28;20538;-71
2023/01/05 11:53:25;;;;;;;11.97;3.47;;;;;;;;;;5024809;28;20451;-71
2023/01/05 11:56:19;;;;;;;8.17;2.50;;;;;;;;;;5029349;28;20451;-72
2023/01/05 11:59:28;;;;;;;12.30;2.30;;;;;;;;;;5031880;28;20492;-72
2023/01/05 12:02:35;;;;;;;11.70;3.13;;;;;;;;;;5032870;28;20873;-76
2023/01/05 12:05:32;;;;;;;9.77;1.87;;;;;;;;;;5039751;28;21023;-75
2023/01/05 12:08:26;;;;;;;6.60;1.80;;;;;;;;;;5026056;28;20491;-75
2023/01/05 12:11:17;;;;;;;8.53;2.03;;;;;;;;;;5031163;28;20506;-77
2023/01/05 12:14:12;;;;;;;7.23;1.83;;;;;;;;;;5034855;28;20504;-75
2023/01/05 12:17:04;;;;;;;4.80;1.70;;;;;;;;;;5034454;28;20479;-76
2023/01/05 12:20:10;;;;;;;6.70;1.83;;;;;;;;;;5029242;28;20902;-76
2023/01/05 12:23:23;;;;;;;8.77;1.80;;;;;;;;;;5033795;28;20480;-77
2023/01/05 12:26:18;;;;;;;7.87;1.87;;;;;;;;;;5028827;28;20470;-76
2023/01/05 12:29:15;;;;;;;5.87;2.17;;;;;;;;;;5034638;28;20484;-74
2023/01/05 12:32:31;;;;;;;6.00;2.50;;;;;;;;;;5034438;28;20475;-76
2023/01/05 12:36:00;;;;;;;5.80;1.80;;;;;;;;;;5041124;28;20444;-70
2023/01/05 12:38:53;;;;;;;7.30;1.57;;;;;;;;;;5025821;28;20462;-77
2023/01/05 12:41:51;;;;;;;5.77;1.83;;;;;;;;;;5029292;28;20485;-76
2023/01/05 12:44:52;;;;;;;5.47;1.80;;;;;;;;;;5018088;28;20501;-77
2023/01/05 12:47:51;;;;;;;7.20;1.93;;;;;;;;;;5011941;28;20948;-72
2023/01/05 12:50:42;;;;;;;3.30;1.63;;;;;;;;;;5021123;28;20480;-71
2023/01/05 12:53:36;;;;;;;5.40;1.60;;;;;;;;;;5023285;28;20465;-71
2023/01/05 12:56:27;;;;;;;5.23;1.20;;;;;;;;;;5021951;28;20519;-71
2023/01/05 12:59:21;;;;;;;3.53;1.40;;;;;;;;;;5023067;28;20516;-71
2023/01/05 13:02:20;;;;;;;5.50;1.70;;;;;;;;;;5017360;28;20474;-71
2023/01/05 13:05:14;;;;;;;2.87;1.43;;;;;;;;;;5020982;28;20970;-71
2023/01/05 13:08:05;;;;;;;3.40;1.43;;;;;;;;;;5022906;28;21179;-75
2023/01/05 13:10:56;;;;;;;3.80;1.90;;;;;;;;;;5018872;28;21009;-74
2023/01/05 13:13:47;;;;;;;3.47;1.70;;;;;;;;;;5032846;28;20849;-73
2023/01/05 13:16:38;;;;;;;6.00;1.73;;;;;;;;;;5016403;28;20679;-70
2023/01/05 13:19:29;;;;;;;7.57;1.77;;;;;;;;;;5010598;28;20498;-70
2023/01/05 13:22:21;;;;;;;3.07;1.90;;;;;;;;;;5024019;28;20943;-70
2023/01/05 13:25:15;;;;;;;3.10;1.17;;;;;;;;;;5033432;28;20529;-70
2023/01/05 13:28:04;;;;;;;7.17;1.23;;;;;;;;;;5020280;28;20478;-70
2023/01/05 13:31:04;;;;;;;2.20;1.10;;;;;;;;;;5026641;28;20483;-70
2023/01/05 13:34:08;;;;;;;1.63;1.00;;;;;;;;;;5031960;28;20447;-70
2023/01/05 13:37:11;;;;;;;4.30;1.50;;;;;;;;;;5031789;28;20890;-70
2023/01/05 13:40:07;;;;;;;3.43;1.30;;;;;;;;;;5018291;28;20801;-70
2023/01/05 13:43:09;;;;;;;4.33;1.30;;;;;;;;;;5018369;28;20629;-71
2023/01/05 13:46:04;;;;;;;3.93;1.40;;;;;;;;;;5027436;28;20936;-70
2023/01/05 13:48:59;;;;;;;3.20;1.50;;;;;;;;;;5025167;28;20444;-70
2023/01/05 13:51:54;;;;;;;2.80;1.20;;;;;;;;;;5024752;28;20519;-70
2023/01/05 13:54:44;;;;;;;3.67;1.27;;;;;;;;;;5021583;28;21144;-70
2023/01/05 13:57:51;;;;;;;8.80;1.50;;;;;;;;;;5034180;28;20864;-70
2023/01/05 14:00:42;;;;;;;4.80;1.23;;;;;;;;;;5032296;28;20490;-70
2023/01/05 14:03:33;;;;;;;4.20;1.70;;;;;;;;;;5025940;28;20956;-70
2023/01/05 14:06:23;;;;;;;3.90;1.37;;;;;;;;;;5030914;28;20470;-70
2023/01/05 14:09:15;;;;;;;1.87;0.83;;;;;;;;;;5026260;28;20446;-74
2023/01/05 14:12:22;;;;;;;3.87;1.00;;;;;;;;;;5028628;28;20467;-73
2023/01/05 14:15:33;;;;;;;2.43;1.10;;;;;;;;;;5026161;28;20463;-73
2023/01/05 14:18:36;;;;;;;4.57;1.17;;;;;;;;;;5027747;28;20478;-73
2023/01/05 14:21:39;;;;;;;3.77;2.00;;;;;;;;;;5027525;28;20840;-73
2023/01/05 14:24:30;;;;;;;3.00;0.90;;;;;;;;;;5031867;28;20504;-73
2023/01/05 14:27:19;;;;;;;4.40;1.50;;;;;;;;;;5026624;28;21028;-73
2023/01/05 14:30:20;;;;;;;5.53;1.83;;;;;;;;;;5020870;28;21111;-71
2023/01/05 14:33:10;;;;;;;4.03;1.30;;;;;;;;;;5021747;28;20520;-71
2023/01/05 14:36:00;;;;;;;4.03;1.40;;;;;;;;;;5032260;28;20463;-70
2023/01/05 14:38:49;;;;;;;6.13;1.77;;;;;;;;;;5022097;28;22293;-70
2023/01/05 14:41:38;;;;;;;5.10;1.50;;;;;;;;;;5036576;28;20568;-70
2023/01/05 14:44:28;;;;;;;5.73;1.63;;;;;;;;;;5024030;28;20462;-70
2023/01/05 14:47:18;;;;;;;3.30;1.80;;;;;;;;;;5034161;28;20485;-70
2023/01/05 14:50:24;;;;;;;5.43;1.97;;;;;;;;;;5038436;28;20458;-70
2023/01/05 14:53:33;;;;;;;6.70;1.97;;;;;;;;;;5039027;28;20443;-70
2023/01/05 14:56:25;;;;;;;4.27;1.90;;;;;;;;;;5031577;28;20578;-70
2023/01/05 14:59:18;;;;;;;5.00;1.80;;;;;;;;;;5034548;28;20554;-70
2023/01/05 15:02:14;;;;;;;4.63;1.83;;;;;;;;;;5027814;28;21006;-70
2023/01/05 15:05:12;;;;;;;4.70;1.50;;;;;;;;;;5024188;28;20977;-70
2023/01/05 15:08:07;;;;;;;6.27;2.70;;;;;;;;;;5025567;28;21159;-70
2023/01/05 15:11:07;;;;;;;7.40;1.70;;;;;;;;;;5017521;28;20608;-71
2023/01/05 15:17:44;;;;;;;4.57;1.83;;;;;;;;;;5030758;28;20771;-70
2023/01/05 15:20:53;;;;;;;3.80;1.90;;;;;;;;;;5018882;28;20470;-70
2023/01/05 15:24:10;;;;;;;3.10;1.57;;;;;;;;;;5019440;28;23210;-71
2023/01/05 15:27:08;;;;;;;4.37;1.60;;;;;;;;;;5025670;28;20479;-70
2023/01/05 15:30:21;;;;;;;3.50;1.53;;;;;;;;;;5015935;28;20452;-70
2023/01/05 15:33:13;;;;;;;2.80;1.43;;;;;;;;;;5016851;28;20625;-70
2023/01/05 15:36:03;;;;;;;2.93;1.40;;;;;;;;;;5014266;28;20506;-70
2023/01/05 15:38:53;;;;;;;7.10;2.10;;;;;;;;;;5027633;28;20527;-70
2023/01/05 15:41:41;;;;;;;9.43;2.40;;;;;;;;;;5024285;28;20923;-70
2023/01/05 15:44:32;;;;;;;6.77;2.20;;;;;;;;;;5026483;28;20802;-70
2023/01/05 15:47:23;;;;;;;5.83;2.60;;;;;;;;;;5028559;28;20467;-70
2023/01/05 15:50:17;;;;;;;6.20;2.10;;;;;;;;;;5033798;28;20455;-70
2023/01/05 15:53:06;;;;;;;8.10;1.93;;;;;;;;;;5031972;28;20995;-70
2023/01/05 15:55:54;;;;;;;6.63;1.70;;;;;;;;;;5029553;28;20451;-70
2023/01/05 15:58:45;;;;;;;6.50;1.90;;;;;;;;;;5028097;28;20468;-70
2023/01/05 16:01:38;;;;;;;5.93;2.07;;;;;;;;;;5026548;28;20479;-70
2023/01/05 16:04:28;;;;;;;5.13;2.17;;;;;;;;;;5021119;28;20459;-70
2023/01/05 16:07:16;;;;;;;5.00;1.63;;;;;;;;;;5028903;28;22246;-74
2023/01/05 16:10:05;;;;;;;9.47;2.30;;;;;;;;;;5034741;28;20471;-74
2023/01/05 16:12:56;;;;;;;5.83;1.83;;;;;;;;;;5032894;28;20455;-74
2023/01/05 16:15:46;;;;;;;5.93;2.17;;;;;;;;;;5031352;28;20443;-74
2023/01/05 16:18:35;;;;;;;5.87;2.50;;;;;;;;;;5025495;28;20638;-70
2023/01/05 16:21:29;;;;;;;6.67;2.33;;;;;;;;;;5009607;28;20487;-70
2023/01/05 16:24:19;;;;;;;6.83;2.70;;;;;;;;;;5007407;28;20456;-70
2023/01/05 16:27:11;;;;;;;4.57;2.07;;;;;;;;;;5019429;28;20957;-70
2023/01/05 16:30:14;;;;;;;5.87;2.03;;;;;;;;;;5022151;28;20459;-69
2023/01/05 16:33:04;;;;;;;5.20;2.20;;;;;;;;;;5005827;28;20519;-69
2023/01/05 16:35:54;;;;;;;10.47;2.43;;;;;;;;;;5005827;28;20902;-70
2023/01/05 16:38:44;;;;;;;7.80;2.27;;;;;;;;;;5013611;28;20499;-69
2023/01/05 16:42:30;;;;;;;5.37;1.93;;;;;;;;;;5032467;28;21022;-69
2023/01/05 16:44:42;;;;;;;6.80;2.13;;;;;;;;;;5035363;28;20589;-69
2023/01/05 16:47:37;;;;;;;4.47;2.20;;;;;;;;;;5016009;28;20475;-70
2023/01/05 16:50:47;;;;;;;6.20;2.10;;;;;;;;;;5027332;28;20485;-70
2023/01/05 16:53:35;;;;;;;5.80;2.57;;;;;;;;;;5020251;28;20562;-70
2023/01/05 16:56:47;;;;;;;5.03;2.30;;;;;;;;;;5029504;28;20439;-70
2023/01/05 16:59:42;;;;;;;7.07;2.40;;;;;;;;;;5028852;28;20532;-74
2023/01/05 17:02:35;;;;;;;4.10;2.07;;;;;;;;;;5028154;28;20587;-74
2023/01/05 17:05:25;;;;;;;7.27;2.20;;;;;;;;;;5028518;28;20968;-73
2023/01/05 17:08:18;;;;;;;4.73;2.00;;;;;;;;;;5029920;28;21179;-73
2023/01/05 17:11:11;;;;;;;7.30;2.50;;;;;;;;;;5029075;28;21190;-73
2023/01/05 17:14:02;;;;;;;4.43;2.30;;;;;;;;;;5022905;28;20464;-74
2023/01/05 17:16:53;;;;;;;9.23;2.57;;;;;;;;;;5025020;28;20568;-74
2023/01/05 17:19:41;;;;;;;3.10;2.80;;;;;;;;;;5028499;28;20461;-69
2023/01/05 17:22:30;;;;;;;7.30;2.93;;;;;;;;;;5031369;28;20486;-69
2023/01/05 17:25:19;;;;;;;4.73;2.70;;;;;;;;;;5023481;28;20459;-69
2023/01/05 17:28:07;;;;;;;5.80;2.63;;;;;;;;;;5026824;28;20483;-69
2023/01/05 17:30:57;;;;;;;5.67;2.67;;;;;;;;;;5026958;28;20588;-69
2023/01/05 17:33:46;;;;;;;5.13;2.30;;;;;;;;;;5024922;28;20459;-68
2023/01/05 17:36:35;;;;;;;5.83;2.50;;;;;;;;;;5034675;28;20463;-69
2023/01/05 17:39:24;;;;;;;5.40;2.47;;;;;;;;;;5032840;28;20462;-70
2023/01/05 17:45:21;;;;;;;4.27;2.53;;;;;;;;;;5029436;28;20490;-69
2023/01/05 17:48:11;;;;;;;3.87;2.20;;;;;;;;;;5026199;28;20851;-69
2023/01/05 17:51:00;;;;;;;6.07;2.70;;;;;;;;;;4949522;28;21081;-75
2023/01/05 18:05:20;;;;;;;4.13;2.40;;;;;;;;;;5029799;28;21186;-69
2023/01/05 18:08:09;;;;;;;5.57;1.80;;;;;;;;;;5035371;28;20485;-72
2023/01/05 18:11:04;;;;;;;5.90;3.40;;;;;;;;;;5041469;28;20829;-72
2023/01/05 18:13:54;;;;;;;8.43;2.80;;;;;;;;;;5042285;28;20447;-72
2023/01/05 18:16:45;;;;;;;4.40;2.00;;;;;;;;;;5038558;28;20496;-72
2023/01/05 18:19:47;;;;;;;3.00;2.50;;;;;;;;;;5039284;28;20620;-72
2023/01/05 18:22:37;;;;;;;4.90;2.27;;;;;;;;;;5037452;28;20482;-72
2023/01/05 18:25:28;;;;;;;8.00;2.80;;;;;;;;;;5032899;28;20970;-72
2023/01/05 18:28:16;;;;;;;4.87;2.77;;;;;;;;;;5034126;28;20972;-71
2023/01/05 18:31:12;;;;;;;3.03;1.90;;;;;;;;;;5031807;28;20495;-71
2023/01/05 18:34:07;;;;;;;6.93;2.50;;;;;;;;;;5035678;28;21123;-72
2023/01/05 18:36:57;;;;;;;4.10;2.43;;;;;;;;;;5032546;28;20470;-72
2023/01/05 18:39:55;;;;;;;7.23;2.47;;;;;;;;;;5039233;28;20831;-72
2023/01/05 18:42:43;;;;;;;5.57;2.70;;;;;;;;;;5031045;28;24286;-71
2023/01/05 18:45:36;;;;;;;8.23;3.23;;;;;;;;;;5036071;28;20492;-74
2023/01/05 18:48:29;;;;;;;5.53;2.70;;;;;;;;;;5040100;28;20566;-72
2023/01/05 18:51:20;;;;;;;5.13;2.87;;;;;;;;;;5042664;28;20482;-71
2023/01/05 18:54:13;;;;;;;6.73;3.60;;;;;;;;;;5037044;28;20444;-71
2023/01/05 18:57:03;;;;;;;7.03;3.70;;;;;;;;;;5041364;28;21547;-70
2023/01/05 18:59:53;;;;;;;10.57;3.50;;;;;;;;;;5037005;28;20455;-72
2023/01/05 19:02:41;;;;;;;7.63;3.57;;;;;;;;;;5031968;28;21030;-71
2023/01/05 19:05:30;;;;;;;6.97;4.13;;;;;;;;;;5034429;28;20461;-71